Fredericksburg, Iowa
Current Conditions -  °F | °C
As of 4:15 PM on Saturday 25 Oct 2014 (Local Time) from KCCY Reporting Station
Clear Clear  
Wind Chill: 66°   Ceiling: Unl
Heat Index: 66°   Visibility: 10mi
Dew Point: 32°   Wind: 10mph
Humidity: 28%   Direction: 310°NW
Pressure: 30.06"   Gusts: 18mph
Location:  42.97°N, 92.2°W
Report Text: KCCY 252115Z AUTO 31009G16KT 10SM CLR 19/M00 A3006 RMK AO2
Loading
Personal Weather Stations






























Interactive Weather Map
Tropical Storm Tracking
New forecast layout! Learn more

10-Day Weather Forecast

Advertisements
Track Severe Weather on mobile